sensor_id;sensor_type;location;lat;lon;timestamp;P1;durP1;ratioP1;P2;durP2;ratioP2
51792;SDS011;37850;53.178;6.376;2024-02-15T00:01:41;52.65;;;18.25;;
51792;SDS011;37850;53.178;6.376;2024-02-15T00:04:07;49.28;;;17.05;;
51792;SDS011;37850;53.178;6.376;2024-02-15T00:06:33;52.53;;;18.92;;
51792;SDS011;37850;53.178;6.376;2024-02-15T00:09:00;63.53;;;18.63;;
51792;SDS011;37850;53.178;6.376;2024-02-15T00:11:26;51.83;;;18.85;;
51792;SDS011;37850;53.178;6.376;2024-02-15T00:13:51;55.70;;;19.00;;
51792;SDS011;37850;53.178;6.376;2024-02-15T00:16:17;50.35;;;18.98;;
51792;SDS011;37850;53.178;6.376;2024-02-15T00:18:43;51.67;;;18.55;;
51792;SDS011;37850;53.178;6.376;2024-02-15T00:21:09;52.13;;;18.13;;
51792;SDS011;37850;53.178;6.376;2024-02-15T00:23:36;50.78;;;19.52;;
51792;SDS011;37850;53.178;6.376;2024-02-15T00:26:02;54.95;;;19.40;;
51792;SDS011;37850;53.178;6.376;2024-02-15T00:28:27;48.28;;;18.15;;
51792;SDS011;37850;53.178;6.376;2024-02-15T00:30:53;60.38;;;19.92;;
51792;SDS011;37850;53.178;6.376;2024-02-15T00:33:19;53.70;;;19.67;;
51792;SDS011;37850;53.178;6.376;2024-02-15T00:35:45;45.03;;;17.00;;
51792;SDS011;37850;53.178;6.376;2024-02-15T00:38:11;51.05;;;19.40;;
51792;SDS011;37850;53.178;6.376;2024-02-15T00:40:37;47.60;;;18.70;;
51792;SDS011;37850;53.178;6.376;2024-02-15T00:43:02;41.58;;;18.23;;
51792;SDS011;37850;53.178;6.376;2024-02-15T00:45:29;49.58;;;18.85;;
51792;SDS011;37850;53.178;6.376;2024-02-15T00:47:55;57.45;;;18.77;;
51792;SDS011;37850;53.178;6.376;2024-02-15T00:50:21;49.15;;;16.88;;
51792;SDS011;37850;53.178;6.376;2024-02-15T00:52:46;41.58;;;17.25;;
51792;SDS011;37850;53.178;6.376;2024-02-15T00:55:12;54.30;;;18.02;;
51792;SDS011;37850;53.178;6.376;2024-02-15T00:57:38;42.90;;;17.23;;
51792;SDS011;37850;53.178;6.376;2024-02-15T01:00:04;47.95;;;17.48;;
51792;SDS011;37850;53.178;6.376;2024-02-15T01:02:31;46.40;;;18.00;;
51792;SDS011;37850;53.178;6.376;2024-02-15T01:04:57;47.13;;;17.92;;
51792;SDS011;37850;53.178;6.376;2024-02-15T01:07:24;47.40;;;18.10;;
51792;SDS011;37850;53.178;6.376;2024-02-15T01:09:53;46.83;;;18.52;;
51792;SDS011;37850;53.178;6.376;2024-02-15T01:12:19;44.50;;;18.55;;
51792;SDS011;37850;53.178;6.376;2024-02-15T01:14:46;45.42;;;17.55;;
51792;SDS011;37850;53.178;6.376;2024-02-15T01:17:12;39.60;;;17.80;;
51792;SDS011;37850;53.178;6.376;2024-02-15T01:19:38;51.13;;;17.92;;
51792;SDS011;37850;53.178;6.376;2024-02-15T01:22:04;38.42;;;16.90;;
51792;SDS011;37850;53.178;6.376;2024-02-15T01:24:31;44.50;;;17.88;;
51792;SDS011;37850;53.178;6.376;2024-02-15T01:26:57;43.75;;;17.27;;
51792;SDS011;37850;53.178;6.376;2024-02-15T01:29:23;40.47;;;16.52;;
51792;SDS011;37850;53.178;6.376;2024-02-15T01:31:52;41.70;;;16.75;;
51792;SDS011;37850;53.178;6.376;2024-02-15T01:34:17;41.40;;;16.25;;
51792;SDS011;37850;53.178;6.376;2024-02-15T01:36:43;35.17;;;16.92;;
51792;SDS011;37850;53.178;6.376;2024-02-15T01:39:09;42.58;;;16.17;;
51792;SDS011;37850;53.178;6.376;2024-02-15T01:41:35;39.20;;;15.02;;
51792;SDS011;37850;53.178;6.376;2024-02-15T01:44:00;39.40;;;15.23;;
51792;SDS011;37850;53.178;6.376;2024-02-15T01:46:26;34.03;;;14.13;;
51792;SDS011;37850;53.178;6.376;2024-02-15T01:48:54;31.73;;;14.00;;
51792;SDS011;37850;53.178;6.376;2024-02-15T01:51:21;38.58;;;14.35;;
51792;SDS011;37850;53.178;6.376;2024-02-15T01:53:49;32.10;;;14.20;;
51792;SDS011;37850;53.178;6.376;2024-02-15T01:56:15;32.97;;;13.40;;
51792;SDS011;37850;53.178;6.376;2024-02-15T01:58:42;34.53;;;14.95;;
51792;SDS011;37850;53.178;6.376;2024-02-15T02:01:10;37.50;;;14.75;;
51792;SDS011;37850;53.178;6.376;2024-02-15T02:03:37;37.28;;;13.30;;
51792;SDS011;37850;53.178;6.376;2024-02-15T02:06:04;36.20;;;13.77;;
51792;SDS011;37850;53.178;6.376;2024-02-15T02:08:30;37.85;;;13.65;;
51792;SDS011;37850;53.178;6.376;2024-02-15T02:10:56;35.03;;;12.15;;
51792;SDS011;37850;53.178;6.376;2024-02-15T02:13:22;32.90;;;12.50;;
51792;SDS011;37850;53.178;6.376;2024-02-15T02:15:48;32.10;;;13.90;;
51792;SDS011;37850;53.178;6.376;2024-02-15T02:18:14;32.65;;;13.60;;
51792;SDS011;37850;53.178;6.376;2024-02-15T02:20:40;36.80;;;12.13;;
51792;SDS011;37850;53.178;6.376;2024-02-15T02:23:16;32.88;;;12.98;;
51792;SDS011;37850;53.178;6.376;2024-02-15T02:25:45;34.33;;;12.90;;
51792;SDS011;37850;53.178;6.376;2024-02-15T02:28:14;34.35;;;12.93;;
51792;SDS011;37850;53.178;6.376;2024-02-15T02:30:41;33.30;;;12.02;;
51792;SDS011;37850;53.178;6.376;2024-02-15T02:33:13;34.42;;;12.77;;
51792;SDS011;37850;53.178;6.376;2024-02-15T02:35:44;25.67;;;11.57;;
51792;SDS011;37850;53.178;6.376;2024-02-15T02:38:10;26.90;;;11.77;;
51792;SDS011;37850;53.178;6.376;2024-02-15T02:40:36;29.73;;;11.20;;
51792;SDS011;37850;53.178;6.376;2024-02-15T02:43:02;28.55;;;10.90;;
51792;SDS011;37850;53.178;6.376;2024-02-15T02:45:28;27.35;;;11.35;;
51792;SDS011;37850;53.178;6.376;2024-02-15T02:47:54;26.55;;;9.90;;
51792;SDS011;37850;53.178;6.376;2024-02-15T02:50:23;30.23;;;11.18;;
51792;SDS011;37850;53.178;6.376;2024-02-15T02:52:48;24.92;;;10.80;;
51792;SDS011;37850;53.178;6.376;2024-02-15T02:55:14;25.75;;;11.05;;
51792;SDS011;37850;53.178;6.376;2024-02-15T02:57:41;30.45;;;11.32;;
51792;SDS011;37850;53.178;6.376;2024-02-15T03:00:12;27.75;;;11.25;;
51792;SDS011;37850;53.178;6.376;2024-02-15T03:02:53;32.63;;;10.95;;
51792;SDS011;37850;53.178;6.376;2024-02-15T03:05:21;29.15;;;10.57;;
51792;SDS011;37850;53.178;6.376;2024-02-15T03:07:47;25.95;;;10.45;;
51792;SDS011;37850;53.178;6.376;2024-02-15T03:10:13;38.22;;;10.15;;
51792;SDS011;37850;53.178;6.376;2024-02-15T03:12:40;29.65;;;9.27;;
51792;SDS011;37850;53.178;6.376;2024-02-15T03:15:10;26.42;;;8.10;;
51792;SDS011;37850;53.178;6.376;2024-02-15T03:17:40;24.35;;;8.75;;
51792;SDS011;37850;53.178;6.376;2024-02-15T03:20:07;25.75;;;8.73;;
51792;SDS011;37850;53.178;6.376;2024-02-15T03:22:47;36.00;;;10.43;;
51792;SDS011;37850;53.178;6.376;2024-02-15T03:27:42;24.67;;;7.68;;
51792;SDS011;37850;53.178;6.376;2024-02-15T03:30:08;32.28;;;9.85;;
51792;SDS011;37850;53.178;6.376;2024-02-15T03:32:35;36.42;;;9.10;;
51792;SDS011;37850;53.178;6.376;2024-02-15T03:35:02;29.88;;;8.25;;
51792;SDS011;37850;53.178;6.376;2024-02-15T03:37:28;33.72;;;9.15;;
51792;SDS011;37850;53.178;6.376;2024-02-15T03:39:54;35.70;;;8.95;;
51792;SDS011;37850;53.178;6.376;2024-02-15T03:42:20;39.60;;;8.95;;
51792;SDS011;37850;53.178;6.376;2024-02-15T03:44:46;33.97;;;9.32;;
51792;SDS011;37850;53.178;6.376;2024-02-15T03:47:13;30.67;;;8.93;;
51792;SDS011;37850;53.178;6.376;2024-02-15T03:49:40;27.95;;;8.77;;
51792;SDS011;37850;53.178;6.376;2024-02-15T03:52:07;28.02;;;8.52;;
51792;SDS011;37850;53.178;6.376;2024-02-15T03:54:35;33.65;;;9.13;;
51792;SDS011;37850;53.178;6.376;2024-02-15T03:57:01;38.55;;;11.05;;
51792;SDS011;37850;53.178;6.376;2024-02-15T03:59:27;31.42;;;9.45;;
51792;SDS011;37850;53.178;6.376;2024-02-15T04:01:53;31.55;;;9.77;;
51792;SDS011;37850;53.178;6.376;2024-02-15T04:04:20;37.67;;;9.80;;
51792;SDS011;37850;53.178;6.376;2024-02-15T04:06:47;38.92;;;10.55;;
51792;SDS011;37850;53.178;6.376;2024-02-15T04:09:18;35.35;;;11.10;;
51792;SDS011;37850;53.178;6.376;2024-02-15T04:11:46;24.92;;;11.93;;
51792;SDS011;37850;53.178;6.376;2024-02-15T04:14:17;35.28;;;11.80;;
51792;SDS011;37850;53.178;6.376;2024-02-15T04:16:43;39.80;;;12.95;;
51792;SDS011;37850;53.178;6.376;2024-02-15T04:19:12;29.50;;;12.48;;
51792;SDS011;37850;53.178;6.376;2024-02-15T04:21:38;37.60;;;13.27;;
51792;SDS011;37850;53.178;6.376;2024-02-15T04:24:05;33.65;;;13.48;;
51792;SDS011;37850;53.178;6.376;2024-02-15T04:26:31;37.78;;;13.27;;
51792;SDS011;37850;53.178;6.376;2024-02-15T04:28:58;31.95;;;13.70;;
51792;SDS011;37850;53.178;6.376;2024-02-15T04:31:24;34.50;;;13.00;;
51792;SDS011;37850;53.178;6.376;2024-02-15T04:33:53;33.60;;;12.70;;
51792;SDS011;37850;53.178;6.376;2024-02-15T04:36:19;42.92;;;13.68;;
51792;SDS011;37850;53.178;6.376;2024-02-15T04:38:49;33.65;;;12.13;;
51792;SDS011;37850;53.178;6.376;2024-02-15T04:41:16;36.03;;;12.50;;
51792;SDS011;37850;53.178;6.376;2024-02-15T04:43:47;34.50;;;11.70;;
51792;SDS011;37850;53.178;6.376;2024-02-15T04:46:13;31.58;;;12.63;;
51792;SDS011;37850;53.178;6.376;2024-02-15T04:48:39;32.13;;;11.95;;
51792;SDS011;37850;53.178;6.376;2024-02-15T04:51:08;35.25;;;11.43;;
51792;SDS011;37850;53.178;6.376;2024-02-15T04:53:35;32.38;;;11.55;;
51792;SDS011;37850;53.178;6.376;2024-02-15T04:56:04;31.38;;;12.15;;
51792;SDS011;37850;53.178;6.376;2024-02-15T04:58:38;30.50;;;12.73;;
51792;SDS011;37850;53.178;6.376;2024-02-15T05:01:15;34.75;;;12.55;;
51792;SDS011;37850;53.178;6.376;2024-02-15T05:03:45;36.80;;;14.10;;
51792;SDS011;37850;53.178;6.376;2024-02-15T05:06:11;37.58;;;14.45;;
51792;SDS011;37850;53.178;6.376;2024-02-15T05:08:41;26.67;;;14.40;;
51792;SDS011;37850;53.178;6.376;2024-02-15T05:11:12;36.90;;;14.02;;
51792;SDS011;37850;53.178;6.376;2024-02-15T05:13:43;31.30;;;13.70;;
51792;SDS011;37850;53.178;6.376;2024-02-15T05:16:10;36.28;;;15.23;;
51792;SDS011;37850;53.178;6.376;2024-02-15T05:18:36;31.58;;;15.68;;
51792;SDS011;37850;53.178;6.376;2024-02-15T05:21:03;34.95;;;16.15;;
51792;SDS011;37850;53.178;6.376;2024-02-15T05:23:29;44.08;;;16.85;;
51792;SDS011;37850;53.178;6.376;2024-02-15T05:25:55;39.53;;;16.50;;
51792;SDS011;37850;53.178;6.376;2024-02-15T05:28:21;39.67;;;16.52;;
51792;SDS011;37850;53.178;6.376;2024-02-15T05:33:44;36.53;;;16.83;;
51792;SDS011;37850;53.178;6.376;2024-02-15T05:36:13;32.40;;;17.48;;
51792;SDS011;37850;53.178;6.376;2024-02-15T05:38:40;36.47;;;16.85;;
51792;SDS011;37850;53.178;6.376;2024-02-15T05:41:06;33.60;;;17.70;;
51792;SDS011;37850;53.178;6.376;2024-02-15T05:43:36;39.67;;;18.58;;
51792;SDS011;37850;53.178;6.376;2024-02-15T05:46:05;38.25;;;18.70;;
51792;SDS011;37850;53.178;6.376;2024-02-15T05:48:33;38.03;;;19.20;;
51792;SDS011;37850;53.178;6.376;2024-02-15T05:51:04;34.22;;;18.20;;
51792;SDS011;37850;53.178;6.376;2024-02-15T05:53:31;38.97;;;19.45;;
51792;SDS011;37850;53.178;6.376;2024-02-15T05:56:07;42.65;;;20.38;;
51792;SDS011;37850;53.178;6.376;2024-02-15T05:58:36;37.85;;;19.42;;
51792;SDS011;37850;53.178;6.376;2024-02-15T06:01:03;38.28;;;21.55;;
51792;SDS011;37850;53.178;6.376;2024-02-15T06:03:32;45.20;;;21.63;;
51792;SDS011;37850;53.178;6.376;2024-02-15T06:05:59;36.58;;;21.00;;
51792;SDS011;37850;53.178;6.376;2024-02-15T06:08:27;42.35;;;21.50;;
51792;SDS011;37850;53.178;6.376;2024-02-15T06:10:55;41.25;;;23.17;;
51792;SDS011;37850;53.178;6.376;2024-02-15T06:13:21;49.25;;;23.08;;
51792;SDS011;37850;53.178;6.376;2024-02-15T06:15:48;36.40;;;21.40;;
51792;SDS011;37850;53.178;6.376;2024-02-15T06:18:21;39.13;;;23.52;;
51792;SDS011;37850;53.178;6.376;2024-02-15T06:20:49;43.88;;;22.63;;
51792;SDS011;37850;53.178;6.376;2024-02-15T06:23:18;38.25;;;22.77;;
51792;SDS011;37850;53.178;6.376;2024-02-15T06:25:46;40.47;;;24.75;;
51792;SDS011;37850;53.178;6.376;2024-02-15T06:28:12;45.85;;;24.13;;
51792;SDS011;37850;53.178;6.376;2024-02-15T06:30:45;45.40;;;23.60;;
51792;SDS011;37850;53.178;6.376;2024-02-15T06:33:30;41.50;;;24.95;;
51792;SDS011;37850;53.178;6.376;2024-02-15T06:36:14;42.42;;;24.15;;
51792;SDS011;37850;53.178;6.376;2024-02-15T06:38:58;42.95;;;23.75;;
51792;SDS011;37850;53.178;6.376;2024-02-15T06:41:42;46.42;;;25.67;;
51792;SDS011;37850;53.178;6.376;2024-02-15T06:44:08;46.25;;;25.13;;
51792;SDS011;37850;53.178;6.376;2024-02-15T06:46:34;39.92;;;23.65;;
51792;SDS011;37850;53.178;6.376;2024-02-15T06:49:00;43.17;;;23.95;;
51792;SDS011;37850;53.178;6.376;2024-02-15T06:51:26;46.10;;;24.23;;
51792;SDS011;37850;53.178;6.376;2024-02-15T06:53:52;45.13;;;24.80;;
51792;SDS011;37850;53.178;6.376;2024-02-15T06:56:21;42.35;;;24.85;;
51792;SDS011;37850;53.178;6.376;2024-02-15T06:58:47;48.10;;;26.02;;
51792;SDS011;37850;53.178;6.376;2024-02-15T07:01:13;47.85;;;25.00;;
51792;SDS011;37850;53.178;6.376;2024-02-15T07:03:42;44.55;;;25.73;;
51792;SDS011;37850;53.178;6.376;2024-02-15T07:06:10;43.67;;;24.88;;
51792;SDS011;37850;53.178;6.376;2024-02-15T07:08:38;49.38;;;25.27;;
51792;SDS011;37850;53.178;6.376;2024-02-15T07:11:06;44.80;;;25.42;;
51792;SDS011;37850;53.178;6.376;2024-02-15T07:13:34;44.33;;;25.25;;
51792;SDS011;37850;53.178;6.376;2024-02-15T07:16:01;45.90;;;25.27;;
51792;SDS011;37850;53.178;6.376;2024-02-15T07:18:28;45.72;;;25.35;;
51792;SDS011;37850;53.178;6.376;2024-02-15T07:20:54;39.78;;;24.08;;
51792;SDS011;37850;53.178;6.376;2024-02-15T07:23:22;41.80;;;23.92;;
51792;SDS011;37850;53.178;6.376;2024-02-15T07:25:48;46.67;;;25.15;;
51792;SDS011;37850;53.178;6.376;2024-02-15T07:28:15;40.42;;;25.52;;
51792;SDS011;37850;53.178;6.376;2024-02-15T07:30:41;46.45;;;25.13;;
51792;SDS011;37850;53.178;6.376;2024-02-15T07:33:07;47.33;;;25.92;;
51792;SDS011;37850;53.178;6.376;2024-02-15T07:35:33;48.83;;;26.17;;
51792;SDS011;37850;53.178;6.376;2024-02-15T07:37:59;48.63;;;24.67;;
51792;SDS011;37850;53.178;6.376;2024-02-15T07:40:26;42.88;;;24.45;;
51792;SDS011;37850;53.178;6.376;2024-02-15T07:42:56;43.65;;;25.25;;
51792;SDS011;37850;53.178;6.376;2024-02-15T07:45:25;45.42;;;24.73;;
51792;SDS011;37850;53.178;6.376;2024-02-15T07:47:50;43.25;;;23.20;;
51792;SDS011;37850;53.178;6.376;2024-02-15T07:50:17;43.13;;;24.10;;
51792;SDS011;37850;53.178;6.376;2024-02-15T07:55:14;51.22;;;23.35;;
51792;SDS011;37850;53.178;6.376;2024-02-15T07:57:40;40.22;;;21.15;;
51792;SDS011;37850;53.178;6.376;2024-02-15T08:00:06;38.33;;;20.75;;
51792;SDS011;37850;53.178;6.376;2024-02-15T08:02:36;41.25;;;22.08;;
51792;SDS011;37850;53.178;6.376;2024-02-15T08:05:06;40.03;;;22.13;;
51792;SDS011;37850;53.178;6.376;2024-02-15T08:07:36;40.78;;;22.35;;
51792;SDS011;37850;53.178;6.376;2024-02-15T08:10:09;38.40;;;22.00;;
51792;SDS011;37850;53.178;6.376;2024-02-15T08:12:45;32.95;;;20.58;;
51792;SDS011;37850;53.178;6.376;2024-02-15T08:15:14;39.45;;;21.20;;
51792;SDS011;37850;53.178;6.376;2024-02-15T08:17:40;39.50;;;20.50;;
51792;SDS011;37850;53.178;6.376;2024-02-15T08:20:10;38.45;;;20.45;;
51792;SDS011;37850;53.178;6.376;2024-02-15T08:22:36;38.63;;;21.10;;
51792;SDS011;37850;53.178;6.376;2024-02-15T08:25:11;35.53;;;20.50;;
51792;SDS011;37850;53.178;6.376;2024-02-15T08:27:38;35.65;;;19.40;;
51792;SDS011;37850;53.178;6.376;2024-02-15T08:30:11;32.63;;;18.63;;
51792;SDS011;37850;53.178;6.376;2024-02-15T08:32:38;36.83;;;19.65;;
51792;SDS011;37850;53.178;6.376;2024-02-15T08:35:05;36.10;;;18.45;;
51792;SDS011;37850;53.178;6.376;2024-02-15T08:37:32;30.95;;;18.65;;
51792;SDS011;37850;53.178;6.376;2024-02-15T08:40:04;30.58;;;18.50;;
51792;SDS011;37850;53.178;6.376;2024-02-15T08:42:39;29.88;;;17.45;;
51792;SDS011;37850;53.178;6.376;2024-02-15T08:45:06;33.63;;;17.50;;
51792;SDS011;37850;53.178;6.376;2024-02-15T08:47:37;31.60;;;17.45;;
51792;SDS011;37850;53.178;6.376;2024-02-15T08:50:07;29.50;;;16.98;;
51792;SDS011;37850;53.178;6.376;2024-02-15T08:52:35;32.45;;;16.77;;
51792;SDS011;37850;53.178;6.376;2024-02-15T08:55:06;33.58;;;17.63;;
51792;SDS011;37850;53.178;6.376;2024-02-15T08:57:34;29.88;;;17.42;;
51792;SDS011;37850;53.178;6.376;2024-02-15T09:00:02;28.55;;;17.38;;
51792;SDS011;37850;53.178;6.376;2024-02-15T09:02:45;34.03;;;17.58;;
51792;SDS011;37850;53.178;6.376;2024-02-15T09:05:11;32.72;;;18.23;;
51792;SDS011;37850;53.178;6.376;2024-02-15T09:07:42;28.83;;;18.02;;
51792;SDS011;37850;53.178;6.376;2024-02-15T09:10:16;28.88;;;16.67;;
51792;SDS011;37850;53.178;6.376;2024-02-15T09:12:43;29.25;;;16.77;;
51792;SDS011;37850;53.178;6.376;2024-02-15T09:15:12;32.38;;;17.88;;
51792;SDS011;37850;53.178;6.376;2024-02-15T09:17:38;29.98;;;17.45;;
51792;SDS011;37850;53.178;6.376;2024-02-15T09:20:11;27.80;;;17.65;;
51792;SDS011;37850;53.178;6.376;2024-02-15T09:22:41;33.53;;;18.58;;
51792;SDS011;37850;53.178;6.376;2024-02-15T09:25:08;31.38;;;17.20;;
51792;SDS011;37850;53.178;6.376;2024-02-15T09:27:35;31.23;;;17.15;;
51792;SDS011;37850;53.178;6.376;2024-02-15T09:30:01;31.25;;;17.42;;
51792;SDS011;37850;53.178;6.376;2024-02-15T09:32:28;33.42;;;17.40;;
51792;SDS011;37850;53.178;6.376;2024-02-15T09:34:53;30.05;;;18.35;;
51792;SDS011;37850;53.178;6.376;2024-02-15T09:37:19;29.08;;;17.33;;
51792;SDS011;37850;53.178;6.376;2024-02-15T09:39:45;30.20;;;17.75;;
51792;SDS011;37850;53.178;6.376;2024-02-15T09:42:11;30.98;;;17.80;;
51792;SDS011;37850;53.178;6.376;2024-02-15T09:44:37;27.50;;;17.85;;
51792;SDS011;37850;53.178;6.376;2024-02-15T09:47:05;26.45;;;17.45;;
51792;SDS011;37850;53.178;6.376;2024-02-15T09:49:38;29.95;;;17.40;;
51792;SDS011;37850;53.178;6.376;2024-02-15T09:52:08;31.85;;;17.17;;
51792;SDS011;37850;53.178;6.376;2024-02-15T09:54:41;30.92;;;16.65;;
51792;SDS011;37850;53.178;6.376;2024-02-15T09:57:10;24.73;;;16.25;;
51792;SDS011;37850;53.178;6.376;2024-02-15T09:59:37;23.48;;;15.85;;
51792;SDS011;37850;53.178;6.376;2024-02-15T10:02:04;22.65;;;15.40;;
51792;SDS011;37850;53.178;6.376;2024-02-15T10:04:36;27.00;;;16.08;;
51792;SDS011;37850;53.178;6.376;2024-02-15T10:07:02;20.25;;;14.68;;
51792;SDS011;37850;53.178;6.376;2024-02-15T10:09:29;25.67;;;15.45;;
51792;SDS011;37850;53.178;6.376;2024-02-15T10:14:25;23.70;;;14.45;;
51792;SDS011;37850;53.178;6.376;2024-02-15T10:16:53;21.38;;;13.82;;
51792;SDS011;37850;53.178;6.376;2024-02-15T10:19:22;19.02;;;13.18;;
51792;SDS011;37850;53.178;6.376;2024-02-15T10:21:53;20.55;;;14.00;;
51792;SDS011;37850;53.178;6.376;2024-02-15T10:24:22;19.35;;;12.30;;
51792;SDS011;37850;53.178;6.376;2024-02-15T10:26:59;17.23;;;12.48;;
51792;SDS011;37850;53.178;6.376;2024-02-15T10:29:29;17.95;;;12.43;;
51792;SDS011;37850;53.178;6.376;2024-02-15T10:31:59;17.75;;;11.60;;
51792;SDS011;37850;53.178;6.376;2024-02-15T10:34:27;17.65;;;11.10;;
51792;SDS011;37850;53.178;6.376;2024-02-15T10:37:14;17.40;;;11.80;;
51792;SDS011;37850;53.178;6.376;2024-02-15T10:39:41;17.60;;;11.85;;
51792;SDS011;37850;53.178;6.376;2024-02-15T10:42:07;15.82;;;10.85;;
51792;SDS011;37850;53.178;6.376;2024-02-15T10:44:36;14.27;;;9.70;;
51792;SDS011;37850;53.178;6.376;2024-02-15T10:47:05;15.93;;;10.75;;
51792;SDS011;37850;53.178;6.376;2024-02-15T10:49:34;15.05;;;10.10;;
51792;SDS011;37850;53.178;6.376;2024-02-15T10:52:04;14.73;;;9.50;;
51792;SDS011;37850;53.178;6.376;2024-02-15T10:54:40;13.63;;;9.30;;
51792;SDS011;37850;53.178;6.376;2024-02-15T10:57:20;14.13;;;9.23;;
51792;SDS011;37850;53.178;6.376;2024-02-15T10:59:58;13.48;;;8.95;;
51792;SDS011;37850;53.178;6.376;2024-02-15T11:03:00;12.68;;;9.07;;
51792;SDS011;37850;53.178;6.376;2024-02-15T11:05:29;13.52;;;9.00;;
51792;SDS011;37850;53.178;6.376;2024-02-15T11:08:06;12.02;;;8.27;;
51792;SDS011;37850;53.178;6.376;2024-02-15T11:10:36;12.25;;;8.45;;
51792;SDS011;37850;53.178;6.376;2024-02-15T11:13:03;10.77;;;7.65;;
51792;SDS011;37850;53.178;6.376;2024-02-15T11:18:02;11.30;;;6.80;;
51792;SDS011;37850;53.178;6.376;2024-02-15T11:22:59;10.75;;;7.20;;
51792;SDS011;37850;53.178;6.376;2024-02-15T11:25:36;9.35;;;6.40;;
51792;SDS011;37850;53.178;6.376;2024-02-15T11:30:55;8.25;;;5.53;;
51792;SDS011;37850;53.178;6.376;2024-02-15T11:36:02;10.63;;;6.28;;
51792;SDS011;37850;53.178;6.376;2024-02-15T11:38:32;7.40;;;5.23;;
51792;SDS011;37850;53.178;6.376;2024-02-15T11:41:03;7.95;;;5.32;;
51792;SDS011;37850;53.178;6.376;2024-02-15T11:43:52;9.52;;;5.53;;
51792;SDS011;37850;53.178;6.376;2024-02-15T11:46:21;11.40;;;5.40;;
51792;SDS011;37850;53.178;6.376;2024-02-15T11:48:52;9.50;;;5.63;;
51792;SDS011;37850;53.178;6.376;2024-02-15T11:53:59;8.00;;;5.07;;
51792;SDS011;37850;53.178;6.376;2024-02-15T11:56:31;10.07;;;5.20;;
51792;SDS011;37850;53.178;6.376;2024-02-15T11:59:02;8.48;;;5.22;;
51792;SDS011;37850;53.178;6.376;2024-02-15T12:01:31;9.13;;;4.82;;
51792;SDS011;37850;53.178;6.376;2024-02-15T12:04:17;8.70;;;5.32;;
51792;SDS011;37850;53.178;6.376;2024-02-15T12:07:02;8.13;;;5.38;;
51792;SDS011;37850;53.178;6.376;2024-02-15T12:09:46;8.95;;;5.25;;
51792;SDS011;37850;53.178;6.376;2024-02-15T12:12:30;7.45;;;5.15;;
51792;SDS011;37850;53.178;6.376;2024-02-15T12:15:15;8.32;;;5.78;;
51792;SDS011;37850;53.178;6.376;2024-02-15T12:18:15;9.65;;;5.90;;
51792;SDS011;37850;53.178;6.376;2024-02-15T12:21:01;9.10;;;5.72;;
51792;SDS011;37850;53.178;6.376;2024-02-15T12:23:27;8.30;;;5.82;;
51792;SDS011;37850;53.178;6.376;2024-02-15T12:25:55;10.80;;;6.30;;
51792;SDS011;37850;53.178;6.376;2024-02-15T12:28:21;12.95;;;6.95;;
51792;SDS011;37850;53.178;6.376;2024-02-15T12:30:47;10.63;;;6.65;;
51792;SDS011;37850;53.178;6.376;2024-02-15T12:33:21;12.00;;;7.53;;
51792;SDS011;37850;53.178;6.376;2024-02-15T12:35:47;10.40;;;7.03;;
51792;SDS011;37850;53.178;6.376;2024-02-15T12:38:13;14.95;;;8.25;;
51792;SDS011;37850;53.178;6.376;2024-02-15T12:40:42;10.82;;;7.88;;
51792;SDS011;37850;53.178;6.376;2024-02-15T12:43:09;14.88;;;8.90;;
51792;SDS011;37850;53.178;6.376;2024-02-15T12:45:35;14.32;;;8.85;;
51792;SDS011;37850;53.178;6.376;2024-02-15T12:48:03;15.60;;;9.40;;
51792;SDS011;37850;53.178;6.376;2024-02-15T12:50:30;15.23;;;9.35;;
51792;SDS011;37850;53.178;6.376;2024-02-15T12:52:58;17.50;;;9.82;;
51792;SDS011;37850;53.178;6.376;2024-02-15T12:55:28;14.02;;;9.95;;
51792;SDS011;37850;53.178;6.376;2024-02-15T12:57:56;14.27;;;9.88;;
51792;SDS011;37850;53.178;6.376;2024-02-15T13:00:28;15.25;;;10.38;;
51792;SDS011;37850;53.178;6.376;2024-02-15T13:02:57;18.98;;;10.57;;
51792;SDS011;37850;53.178;6.376;2024-02-15T13:05:25;18.83;;;10.57;;
51792;SDS011;37850;53.178;6.376;2024-02-15T13:07:51;16.05;;;11.02;;
51792;SDS011;37850;53.178;6.376;2024-02-15T13:10:20;20.10;;;10.35;;
51792;SDS011;37850;53.178;6.376;2024-02-15T13:12:47;17.08;;;11.18;;
51792;SDS011;37850;53.178;6.376;2024-02-15T13:15:13;20.42;;;11.25;;
51792;SDS011;37850;53.178;6.376;2024-02-15T13:17:43;19.73;;;11.88;;
51792;SDS011;37850;53.178;6.376;2024-02-15T13:20:19;17.55;;;11.70;;
51792;SDS011;37850;53.178;6.376;2024-02-15T13:22:52;16.80;;;11.25;;
51792;SDS011;37850;53.178;6.376;2024-02-15T13:25:19;18.35;;;11.52;;
51792;SDS011;37850;53.178;6.376;2024-02-15T13:27:46;15.48;;;10.55;;
51792;SDS011;37850;53.178;6.376;2024-02-15T13:30:13;20.67;;;11.73;;
51792;SDS011;37850;53.178;6.376;2024-02-15T13:32:39;17.30;;;11.25;;
51792;SDS011;37850;53.178;6.376;2024-02-15T13:35:06;19.88;;;11.88;;
51792;SDS011;37850;53.178;6.376;2024-02-15T13:37:40;15.43;;;11.50;;
51792;SDS011;37850;53.178;6.376;2024-02-15T13:40:12;19.58;;;11.07;;
51792;SDS011;37850;53.178;6.376;2024-02-15T13:42:45;17.20;;;11.80;;
51792;SDS011;37850;53.178;6.376;2024-02-15T13:45:27;21.05;;;11.05;;
51792;SDS011;37850;53.178;6.376;2024-02-15T13:48:02;17.48;;;10.80;;
51792;SDS011;37850;53.178;6.376;2024-02-15T13:50:30;19.85;;;10.73;;
51792;SDS011;37850;53.178;6.376;2024-02-15T13:52:56;19.05;;;10.90;;
51792;SDS011;37850;53.178;6.376;2024-02-15T13:55:25;19.52;;;10.68;;
51792;SDS011;37850;53.178;6.376;2024-02-15T13:57:52;18.55;;;10.90;;
51792;SDS011;37850;53.178;6.376;2024-02-15T14:00:18;19.17;;;10.02;;
51792;SDS011;37850;53.178;6.376;2024-02-15T14:02:48;21.20;;;11.00;;
51792;SDS011;37850;53.178;6.376;2024-02-15T14:05:14;18.42;;;11.07;;
51792;SDS011;37850;53.178;6.376;2024-02-15T14:07:42;20.42;;;10.82;;
51792;SDS011;37850;53.178;6.376;2024-02-15T14:10:08;20.98;;;11.98;;
51792;SDS011;37850;53.178;6.376;2024-02-15T14:12:36;18.65;;;11.55;;
51792;SDS011;37850;53.178;6.376;2024-02-15T14:15:03;23.73;;;11.20;;
51792;SDS011;37850;53.178;6.376;2024-02-15T14:17:31;16.48;;;10.90;;
51792;SDS011;37850;53.178;6.376;2024-02-15T14:19:57;16.48;;;11.07;;
51792;SDS011;37850;53.178;6.376;2024-02-15T14:22:23;19.92;;;11.43;;
51792;SDS011;37850;53.178;6.376;2024-02-15T14:24:53;16.80;;;9.77;;
51792;SDS011;37850;53.178;6.376;2024-02-15T14:27:19;20.55;;;10.38;;
51792;SDS011;37850;53.178;6.376;2024-02-15T14:29:45;17.08;;;11.10;;
51792;SDS011;37850;53.178;6.376;2024-02-15T14:32:30;17.70;;;10.65;;
51792;SDS011;37850;53.178;6.376;2024-02-15T14:35:14;19.42;;;11.23;;
51792;SDS011;37850;53.178;6.376;2024-02-15T14:37:42;19.92;;;11.65;;
51792;SDS011;37850;53.178;6.376;2024-02-15T14:40:09;24.55;;;11.90;;
51792;SDS011;37850;53.178;6.376;2024-02-15T14:42:39;23.48;;;12.60;;
51792;SDS011;37850;53.178;6.376;2024-02-15T14:45:07;20.70;;;12.15;;
51792;SDS011;37850;53.178;6.376;2024-02-15T14:47:34;22.65;;;12.73;;
51792;SDS011;37850;53.178;6.376;2024-02-15T14:50:00;22.42;;;13.02;;
51792;SDS011;37850;53.178;6.376;2024-02-15T14:52:25;23.45;;;12.20;;
51792;SDS011;37850;53.178;6.376;2024-02-15T14:54:51;19.88;;;12.18;;
51792;SDS011;37850;53.178;6.376;2024-02-15T14:57:17;21.80;;;12.23;;